Jones Prairie, Texas
Current Conditions -  °F | °C
As of 7:15 PM on Saturday 25 Oct 2014 (Local Time) from KT35 Reporting Station
Clear Clear  
Wind Chill: 77°   Ceiling: Unl
Heat Index: 79°   Visibility: 10mi
Dew Point: 62°   Wind: 5mph
Humidity: 60%   Direction: 160°SSE
Pressure: 30.08"   Gusts: NA
Location:  30.8332°N, 96.9826°W
Report Text: KT35 260015Z AUTO 16004KT 10SM CLR 25/17 A3008 RMK AO2 T02510168
Loading
Personal Weather Stations






























Interactive Weather Map
Tropical Storm Tracking
New forecast layout! Learn more

10-Day Weather Forecast

Advertisements
Track Severe Weather on mobile